Terminal Aerodrome Forecast
Issued by NWS

Home | Current Version | Previous Version | Text Only | Print | Product List | Glossary Off
Versions: 1 2 3 4 5 6 7 8 9 10 11 12 13 14 15 16 17 18

462
FTUS43 KICT 271734
TAFRSL
TAF
KRSL 271734Z 2718/2818 17017G25KT P6SM FEW200
     FM280100 18015G24KT P6SM SCT200
     FM280600 20015G22KT P6SM SCT200 WS020/21045KT
     FM281500 22016G25KT P6SM SCT200=

USA.gov is the U.S. government's official web portal to all federal, state and local government web resources and services.